Time;durP1;ratioP1;P1;durP2;ratioP2;P2;SDS_P1;SDS_P2;PMS_P1;PMS_P2;Temp;Humidity;BMP_temperature;BMP_pressure;BME280_temperature;BME280_humidity;BME280_pressure;Samples;Min_cycle;Max_cycle;Signal;HPM_P1;HPM_P2
2022/05/23 00:02:08;;;;;;;0.30;0.30;;;23.30;43.00;;;-147.20;100.00;58430.41;5095191;28;20076;-19
2022/05/23 00:04:34;;;;;;;0.52;0.40;;;23.30;43.00;;;-147.20;100.00;58430.41;5095040;28;20411;-18
2022/05/23 00:07:00;;;;;;;0.32;0.32;;;23.30;43.00;;;-147.20;100.00;58430.41;5095086;28;20079;-18
2022/05/23 00:09:26;;;;;;;0.50;0.50;;;23.20;42.90;;;-147.20;100.00;58430.41;5094987;28;20071;-18
2022/05/23 00:11:53;;;;;;;0.40;0.40;;;23.30;43.00;;;-147.20;100.00;58430.41;5095412;28;20416;-18
2022/05/23 00:14:19;;;;;;;0.40;0.40;;;23.30;43.00;;;-147.20;100.00;58430.41;5095306;28;20051;-18
2022/05/23 00:16:48;;;;;;;0.30;0.30;;;23.30;43.00;;;-147.20;100.00;58430.41;5095008;28;20051;-19
2022/05/23 00:19:15;;;;;;;0.40;0.40;;;23.30;43.00;;;-147.20;100.00;58430.41;5074712;28;20053;-18
2022/05/23 00:21:45;;;;;;;0.63;0.40;;;23.30;43.00;;;-147.20;100.00;58430.41;5095020;28;20059;-18
2022/05/23 00:24:13;;;;;;;0.50;0.50;;;23.30;43.00;;;-147.20;100.00;58430.41;5095182;28;20043;-18
2022/05/23 00:26:40;;;;;;;0.32;0.32;;;23.30;43.00;;;-147.20;100.00;58430.41;5094965;28;20048;-19
2022/05/23 00:29:06;;;;;;;0.35;0.35;;;23.20;42.90;;;-147.20;100.00;58430.41;5094638;28;20052;-18
2022/05/23 00:31:32;;;;;;;0.30;0.30;;;23.30;43.00;;;-147.20;100.00;58430.41;5076502;28;20083;-18
2022/05/23 00:36:43;;;;;;;0.47;0.47;;;23.30;43.00;;;-147.20;100.00;58430.41;5094867;28;20048;-19
2022/05/23 00:39:09;;;;;;;0.30;0.30;;;23.30;43.00;;;-147.20;100.00;58430.41;5094594;28;20060;-18
2022/05/23 00:44:34;;;;;;;0.38;0.38;;;23.20;43.00;;;-147.20;100.00;58430.41;5095012;28;20054;-18
2022/05/23 00:47:14;;;;;;;0.30;0.30;;;23.30;43.00;;;-147.20;100.00;58430.41;5094271;28;20040;-19
2022/05/23 00:49:39;;;;;;;0.40;0.40;;;23.20;43.00;;;-147.20;100.00;58430.41;5060068;28;20055;-19
2022/05/23 00:52:20;;;;;;;0.30;0.30;;;23.20;43.00;;;-147.20;100.00;58430.41;5093262;28;20048;-19
2022/05/23 00:54:50;;;;;;;0.30;0.30;;;23.30;43.00;;;-147.20;100.00;58430.41;5094637;28;20529;-18
2022/05/23 00:57:22;;;;;;;0.53;0.53;;;23.20;42.90;;;-147.20;100.00;58430.41;5094651;28;20071;-18
2022/05/23 00:59:48;;;;;;;0.50;0.50;;;23.20;43.00;;;-147.20;100.00;58430.41;5093217;28;20048;-18
2022/05/23 01:02:15;;;;;;;0.30;0.30;;;23.20;43.00;;;-147.20;100.00;58430.41;5058912;28;20059;-18
2022/05/23 01:04:42;;;;;;;0.73;0.30;;;23.20;43.00;;;-147.20;100.00;58430.41;5074044;28;20056;-18
2022/05/23 01:07:09;;;;;;;0.38;0.38;;;23.20;43.00;;;-147.20;100.00;58430.41;5074555;28;20044;-18
2022/05/23 01:09:36;;;;;;;0.30;0.30;;;23.20;43.00;;;-147.20;100.00;58430.41;5074098;28;20078;-18
2022/05/23 01:12:02;;;;;;;0.43;0.43;;;23.20;43.00;;;-147.20;100.00;58430.41;5093888;28;20044;-18
2022/05/23 01:14:56;;;;;;;0.30;0.30;;;23.20;43.00;;;-147.20;100.00;58430.41;5075868;28;20106;-19
2022/05/23 01:17:25;;;;;;;0.32;0.32;;;23.20;43.00;;;-147.20;100.00;58430.41;5093798;28;20545;-19
2022/05/23 01:19:52;;;;;;;0.30;0.30;;;23.20;43.00;;;-147.20;100.00;58430.41;5073891;28;20416;-19
2022/05/23 01:22:32;;;;;;;0.68;0.40;;;23.20;43.60;;;-147.20;100.00;58430.41;5075334;28;20044;-18
2022/05/23 01:25:03;;;;;;;0.43;0.43;;;23.20;43.00;;;-147.20;100.00;58430.41;5076212;28;20460;-18
2022/05/23 01:27:30;;;;;;;;;;;23.20;43.00;;;-147.20;100.00;58430.41;5076205;28;20047;-19
2022/05/23 01:29:58;;;;;;;0.50;0.40;;;23.20;43.00;;;-147.20;100.00;58430.41;5059006;28;19915;-18
2022/05/23 01:32:24;;;;;;;0.30;0.30;;;23.20;43.00;;;-147.20;100.00;58430.41;5075355;28;20507;-19
2022/05/23 01:34:50;;;;;;;0.40;0.40;;;23.20;43.00;;;-147.20;100.00;58430.41;5058768;28;20441;-18
2022/05/23 01:37:19;;;;;;;0.30;0.30;;;23.20;43.60;;;-147.20;100.00;58430.41;5075746;28;20044;-18
2022/05/23 01:39:54;;;;;;;0.47;0.30;;;23.20;43.00;;;-147.20;100.00;58430.41;5075984;28;20048;-18
2022/05/23 01:42:33;;;;;;;0.40;0.40;;;23.20;43.00;;;-147.20;100.00;58430.41;5092945;28;20106;-18
2022/05/23 01:44:59;;;;;;;0.30;0.30;;;23.20;43.00;;;-147.20;100.00;58430.41;5075675;28;20407;-18
2022/05/23 01:47:25;;;;;;;0.30;0.30;;;23.20;43.00;;;-147.20;100.00;58430.41;5093469;28;20143;-18
2022/05/23 01:49:59;;;;;;;0.57;0.35;;;23.20;43.00;;;-147.20;100.00;58430.41;5092135;28;20476;-18
2022/05/23 01:52:53;;;;;;;0.70;0.50;;;23.20;43.10;;;-147.20;100.00;58430.41;5075088;28;20081;-18
2022/05/23 01:55:22;;;;;;;0.50;0.45;;;23.20;43.10;;;-147.20;100.00;58430.41;5074055;28;20044;-18
2022/05/23 01:58:10;;;;;;;0.52;0.50;;;23.20;43.00;;;-147.20;100.00;58430.41;5072039;28;20052;-18
2022/05/23 02:03:28;;;;;;;0.40;0.40;;;23.20;43.10;;;-147.20;100.00;58430.41;5071892;28;20041;-19
2022/05/23 02:05:57;;;;;;;0.30;0.30;;;23.20;43.10;;;-147.20;100.00;58430.41;5075049;28;20047;-18
2022/05/23 02:08:23;;;;;;;0.40;0.40;;;23.10;43.00;;;-147.20;100.00;58430.41;5074940;28;20480;-19
2022/05/23 02:10:49;;;;;;;0.38;0.38;;;23.20;43.00;;;-147.20;100.00;58430.41;5076065;28;20041;-18
2022/05/23 02:13:20;;;;;;;0.40;0.40;;;23.20;43.00;;;-147.20;100.00;58430.41;5074861;28;20138;-19
2022/05/23 02:15:46;;;;;;;0.30;0.30;;;23.20;43.10;;;-147.20;100.00;58430.41;5074895;28;20377;-18
2022/05/23 02:18:35;;;;;;;0.40;0.40;;;23.10;43.00;;;-147.20;100.00;58430.41;5074870;28;20135;-18
2022/05/23 02:21:01;;;;;;;0.30;0.30;;;23.10;43.00;;;-147.20;100.00;58430.41;5093280;28;20135;-18
2022/05/23 02:23:27;;;;;;;0.40;0.40;;;23.10;43.00;;;-147.20;100.00;58430.41;5091860;28;20146;-19
2022/05/23 02:25:52;;;;;;;0.30;0.30;;;23.20;43.10;;;-147.20;100.00;58430.41;5074964;28;20048;-19
2022/05/23 02:28:40;;;;;;;0.40;0.40;;;23.10;43.00;;;-147.20;100.00;58430.41;5073894;28;20135;-18
2022/05/23 02:31:06;;;;;;;0.30;0.30;;;23.20;43.10;;;-147.20;100.00;58430.41;5076498;28;20385;-18
2022/05/23 02:33:51;;;;;;;0.30;0.30;;;23.10;43.00;;;-147.20;100.00;58430.41;5092085;28;20048;-18
2022/05/23 02:36:25;;;;;;;0.40;0.40;;;23.10;43.00;;;-147.20;100.00;58430.41;5074505;28;20086;-18
2022/05/23 02:38:51;;;;;;;0.38;0.38;;;23.10;43.00;;;-147.20;100.00;58430.41;5073164;28;20077;-19
2022/05/23 02:41:17;;;;;;;0.35;0.35;;;23.20;43.10;;;-147.20;100.00;58430.41;5091976;28;20142;-18
2022/05/23 02:43:43;;;;;;;0.22;0.22;;;23.10;43.00;;;-147.20;100.00;58430.41;5074424;28;20051;-19
2022/05/23 02:46:11;;;;;;;0.30;0.30;;;23.10;43.10;;;-147.20;100.00;58430.41;5074363;28;20051;-18
2022/05/23 02:48:38;;;;;;;0.40;0.40;;;23.10;43.00;;;-147.20;100.00;58430.41;5074265;28;20071;-18
2022/05/23 02:51:06;;;;;;;0.40;0.40;;;23.10;43.00;;;-147.20;100.00;58430.41;5092432;28;20051;-18
2022/05/23 02:53:32;;;;;;;0.40;0.40;;;23.10;43.00;;;-147.20;100.00;58430.41;5074887;28;20407;-18
2022/05/23 02:55:59;;;;;;;0.40;0.40;;;23.10;43.00;;;-147.20;100.00;58430.41;5074271;28;20431;-19
2022/05/23 02:58:25;;;;;;;0.30;0.30;;;23.10;43.00;;;-147.20;100.00;58430.41;5092246;28;20139;-18
2022/05/23 03:00:51;;;;;;;0.30;0.30;;;23.10;43.00;;;-147.20;100.00;58430.41;5092817;28;20150;-19
2022/05/23 03:03:17;;;;;;;0.30;0.30;;;23.10;43.00;;;-147.20;100.00;58430.41;5092462;28;20048;-18
2022/05/23 03:05:48;;;;;;;0.47;0.38;;;23.10;43.00;;;-147.20;100.00;58430.41;5075140;28;20052;-18
2022/05/23 03:08:19;;;;;;;0.50;0.30;;;23.10;43.00;;;-147.20;100.00;58430.41;5095897;28;20051;-18
2022/05/23 03:10:45;;;;;;;0.30;0.30;;;23.10;43.00;;;-147.20;100.00;58430.41;5078114;28;20092;-19
2022/05/23 03:13:12;;;;;;;0.38;0.35;;;23.10;43.10;;;-147.20;100.00;58430.41;5061296;28;20052;-19
2022/05/23 03:15:39;;;;;;;0.47;0.40;;;23.10;43.10;;;-147.20;100.00;58430.41;5094508;28;20051;-19
2022/05/23 03:18:07;;;;;;;0.50;0.40;;;23.10;43.00;;;-147.20;100.00;58430.41;5076175;28;20045;-18
2022/05/23 03:20:38;;;;;;;;;;;23.10;43.00;;;-147.20;100.00;58430.41;5075404;28;20041;-18
2022/05/23 03:28:37;;;;;;;0.40;0.40;;;23.10;43.00;;;-147.20;100.00;58430.41;5075842;28;20051;-19
2022/05/23 03:31:04;;;;;;;0.52;0.40;;;23.10;43.00;;;-147.20;100.00;58430.41;5077672;28;20062;-18
2022/05/23 03:33:31;;;;;;;0.30;0.30;;;23.10;43.00;;;-147.20;100.00;58430.41;5077247;28;20052;-19
2022/05/23 03:35:56;;;;;;;0.43;0.43;;;23.20;43.00;;;-147.20;100.00;58430.41;5095634;28;20040;-18
2022/05/23 03:38:24;;;;;;;0.43;0.40;;;23.10;42.90;;;-147.20;100.00;58430.41;5073620;28;20099;-19
2022/05/23 03:40:50;;;;;;;0.40;0.40;;;23.20;43.00;;;-147.20;100.00;58430.41;5077060;28;20040;-19
2022/05/23 03:43:16;;;;;;;0.52;0.52;;;23.20;43.00;;;-147.20;100.00;58430.41;5077463;28;20052;-19
2022/05/23 03:45:43;;;;;;;0.50;0.50;;;23.20;43.00;;;-147.20;100.00;58430.41;5075743;28;20041;-19
2022/05/23 03:48:12;;;;;;;0.50;0.40;;;23.20;42.90;;;-147.20;100.00;58430.41;5077845;28;20048;-18
2022/05/23 03:50:40;;;;;;;0.30;0.30;;;23.20;42.90;;;-147.20;100.00;58430.41;5077319;28;20052;-18
2022/05/23 03:53:07;;;;;;;0.40;0.40;;;23.20;42.80;;;-147.20;100.00;58430.41;5076147;28;20055;-18
2022/05/23 03:55:39;;;;;;;0.30;0.30;;;23.20;42.80;;;-147.20;100.00;58430.41;5077366;28;20425;-18
2022/05/23 03:58:15;;;;;;;0.30;0.30;;;23.30;42.80;;;-147.20;100.00;58430.41;5093975;28;20036;-18
2022/05/23 04:00:48;;;;;;;0.32;0.32;;;23.30;42.80;;;-147.20;100.00;58430.41;5073308;28;20052;-18
2022/05/23 04:03:19;;;;;;;0.50;0.50;;;23.20;42.80;;;-147.20;100.00;58430.41;5076923;28;20055;-18
2022/05/23 04:05:47;;;;;;;0.50;0.50;;;23.20;42.80;;;-147.20;100.00;58430.41;5076995;28;20484;-18
2022/05/23 04:08:39;;;;;;;0.77;0.50;;;23.30;42.80;;;-147.20;100.00;58430.41;5053879;28;20139;-19
2022/05/23 04:11:07;;;;;;;0.55;0.50;;;23.30;42.80;;;-147.20;100.00;58430.41;5076905;28;20513;-18
2022/05/23 04:13:34;;;;;;;0.30;0.30;;;23.30;42.80;;;-147.20;100.00;58430.41;5076670;28;20051;-18
2022/05/23 04:16:00;;;;;;;0.43;0.40;;;23.30;42.80;;;-147.20;100.00;58430.41;5076764;28;20052;-19
2022/05/23 04:18:26;;;;;;;0.30;0.30;;;23.20;42.70;;;-147.20;100.00;58430.41;5075558;28;20404;-19
2022/05/23 04:20:52;;;;;;;0.40;0.40;;;23.30;42.80;;;-147.20;100.00;58430.41;5075845;28;20056;-19
2022/05/23 04:23:21;;;;;;;0.30;0.30;;;23.30;42.80;;;-147.20;100.00;58430.41;5076464;28;20426;-18
2022/05/23 04:25:49;;;;;;;0.30;0.30;;;23.30;42.80;;;-147.20;100.00;58430.41;5093464;28;20044;-19
2022/05/23 04:28:18;;;;;;;0.30;0.30;;;23.30;42.70;;;-147.20;100.00;58430.41;5077189;28;20083;-18
2022/05/23 04:30:45;;;;;;;0.30;0.30;;;23.30;42.70;;;-147.20;100.00;58430.41;5076798;28;20135;-19
2022/05/23 04:36:01;;;;;;;0.43;0.43;;;23.30;42.70;;;-147.20;100.00;58430.41;5076434;28;20032;-18
2022/05/23 04:38:34;;;;;;;0.30;0.30;;;23.30;42.70;;;-147.20;100.00;58430.41;5074970;28;20044;-19
2022/05/23 04:41:06;;;;;;;0.30;0.30;;;23.30;42.70;;;-147.20;100.00;58430.41;5093208;28;20044;-18
2022/05/23 04:43:46;;;;;;;0.43;0.43;;;23.30;42.70;;;-147.20;100.00;58430.41;5076362;28;20047;-19
2022/05/23 04:46:12;;;;;;;0.40;0.40;;;23.40;42.60;;;-147.20;100.00;58430.41;5076146;28;20050;-18
2022/05/23 04:52:02;;;;;;;0.38;0.32;;;23.50;42.50;;;-147.20;100.00;58430.41;5076120;28;20048;-19
2022/05/23 04:54:36;;;;;;;0.30;0.30;;;23.60;42.40;;;-147.20;100.00;58430.41;5074869;28;20045;-18
2022/05/23 04:57:04;;;;;;;0.40;0.40;;;23.60;42.30;;;-147.20;100.00;58430.41;5075721;28;20056;-19
2022/05/23 04:59:33;;;;;;;0.50;0.50;;;23.70;42.20;;;-147.20;100.00;58430.41;5075971;28;20044;-18
2022/05/23 05:02:01;;;;;;;0.38;0.38;;;23.70;42.10;;;-147.20;100.00;58430.41;5075305;28;20076;-19
2022/05/23 05:04:29;;;;;;;0.30;0.30;;;23.80;42.10;;;-147.20;100.00;58430.41;5075972;28;20101;-18
2022/05/23 05:06:55;;;;;;;0.40;0.40;;;23.80;42.00;;;-147.20;100.00;58430.41;5076037;28;20052;-18
2022/05/23 05:09:21;;;;;;;0.30;0.30;;;23.90;41.90;;;-147.20;100.00;58430.41;5075878;28;20040;-19
2022/05/23 05:11:53;;;;;;;0.40;0.40;;;23.90;42.00;;;-147.20;100.00;58430.41;5076479;28;20514;-18
2022/05/23 05:14:27;;;;;;;0.30;0.30;;;24.00;41.70;;;-147.20;100.00;58430.41;5075920;28;20048;-19
2022/05/23 05:16:54;;;;;;;0.30;0.30;;;24.10;41.70;;;-147.20;100.00;58430.41;5076259;28;20040;-18
2022/05/23 05:19:21;;;;;;;0.35;0.35;;;24.10;41.70;;;-147.20;100.00;58430.41;5078370;28;20487;-19
2022/05/23 05:21:53;;;;;;;0.30;0.30;;;24.10;41.60;;;-147.20;100.00;58430.41;5093963;28;20074;-19
2022/05/23 05:24:48;;;;;;;0.30;0.30;;;24.10;41.60;;;-147.20;100.00;58430.41;5093744;28;20893;-18
2022/05/23 05:27:37;;;;;;;0.30;0.30;;;24.00;41.60;;;-147.20;100.00;58430.41;5087798;28;20493;-18
2022/05/23 05:30:07;;;;;;;0.32;0.32;;;24.10;41.70;;;-147.20;100.00;58430.41;5073871;28;21148;-18
2022/05/23 05:32:44;;;;;;;0.30;0.30;;;24.10;41.60;;;-147.20;100.00;58430.41;5075294;28;20048;-18
2022/05/23 05:35:53;;;;;;;0.30;0.30;;;24.10;41.60;;;-147.20;100.00;58430.41;5073755;28;20071;-19
2022/05/23 05:38:49;;;;;;;0.70;0.40;;;24.20;41.50;;;-147.20;100.00;58430.41;4991616;28;20105;-18
2022/05/23 05:41:22;;;;;;;0.38;0.38;;;24.20;41.40;;;-147.20;100.00;58430.41;5072761;28;20060;-18
2022/05/23 05:44:13;;;;;;;0.30;0.30;;;24.20;41.30;;;-147.20;100.00;58430.41;5075972;28;20044;-18
2022/05/23 05:46:49;;;;;;;0.40;0.40;;;24.30;41.30;;;-147.20;100.00;58430.41;5075901;28;20044;-19
2022/05/23 05:49:29;;;;;;;0.30;0.30;;;24.40;41.20;;;-147.20;100.00;58430.41;5059236;28;20058;-19
2022/05/23 05:52:05;;;;;;;0.40;0.40;;;24.40;41.10;;;-147.20;100.00;58430.41;5059718;28;20060;-18
2022/05/23 05:54:46;;;;;;;0.30;0.30;;;24.50;41.10;;;-147.20;100.00;58430.41;5075474;28;20500;-18
2022/05/23 05:57:14;;;;;;;0.40;0.40;;;24.50;41.00;;;-147.20;100.00;58430.41;5072990;28;20048;-19
2022/05/23 05:59:40;;;;;;;0.32;0.30;;;24.50;41.00;;;-147.20;100.00;58430.41;5073898;28;20135;-18
2022/05/23 06:02:08;;;;;;;0.30;0.30;;;24.60;41.50;;;-147.20;100.00;58430.41;5073025;28;20440;-18
2022/05/23 06:04:36;;;;;;;0.30;0.30;;;24.60;40.80;;;-147.20;100.00;58430.41;5075569;28;20056;-19
2022/05/23 06:12:54;;;;;;;0.40;0.40;;;24.70;40.70;;;-147.20;100.00;58430.41;5073773;28;20096;-18
2022/05/23 06:15:58;;;;;;;0.40;0.40;;;24.80;40.70;;;-147.20;100.00;58430.41;5072883;28;20059;-18
2022/05/23 06:18:31;;;;;;;0.65;0.38;;;24.80;40.50;;;-147.20;100.00;58430.41;5074464;28;20084;-18
2022/05/23 06:20:57;;;;;;;0.40;0.40;;;24.90;40.50;;;-147.20;100.00;58430.41;5076255;28;20094;-19
2022/05/23 06:23:24;;;;;;;0.50;0.50;;;24.90;40.50;;;-147.20;100.00;58430.41;5074836;28;20044;-19
2022/05/23 06:26:01;;;;;;;0.43;0.40;;;24.90;40.50;;;-147.20;100.00;58430.41;5074672;28;20040;-19
2022/05/23 06:28:48;;;;;;;0.52;0.52;;;24.90;40.40;;;-147.20;100.00;58430.41;5076865;28;20446;-18
2022/05/23 06:31:15;;;;;;;0.30;0.30;;;24.90;40.90;;;-147.20;100.00;58430.41;5057474;28;20051;-18
2022/05/23 06:33:42;;;;;;;0.40;0.40;;;25.00;40.30;;;-147.20;100.00;58430.41;5073204;28;20473;-18
2022/05/23 06:36:19;;;;;;;0.40;0.40;;;25.00;40.40;;;-147.20;100.00;58430.41;5074926;28;20071;-18
2022/05/23 06:38:45;;;;;;;0.50;0.50;;;24.90;40.40;;;-147.20;100.00;58430.41;5074344;28;20058;-18
2022/05/23 06:41:33;;;;;;;0.40;0.40;;;24.90;40.40;;;-147.20;100.00;58430.41;5091938;28;20048;-18
2022/05/23 06:44:28;;;;;;;0.30;0.30;;;24.90;40.40;;;-147.20;100.00;58430.41;5092018;28;20052;-19
2022/05/23 06:47:24;;;;;;;0.60;0.40;;;24.90;40.40;;;-147.20;100.00;58430.41;5092345;28;20475;-18
2022/05/23 06:50:22;;;;;;;0.90;0.40;;;24.90;40.40;;;-147.20;100.00;58430.41;5065879;28;20048;-19
2022/05/23 06:53:08;;;;;;;0.40;0.40;;;24.90;40.40;;;-147.20;100.00;58430.41;5092937;28;20097;-19
2022/05/23 06:55:41;;;;;;;0.40;0.30;;;24.90;40.40;;;-147.20;100.00;58430.41;5091716;28;20044;-19
2022/05/23 06:58:07;;;;;;;0.32;0.32;;;25.00;40.40;;;-147.20;100.00;58430.41;5090945;28;20174;-19
2022/05/23 07:00:36;;;;;;;0.30;0.30;;;25.00;40.40;;;-147.20;100.00;58430.41;5074177;28;20118;-18
2022/05/23 07:03:11;;;;;;;0.30;0.30;;;25.00;40.30;;;-147.20;100.00;58430.41;5074307;28;20484;-18
2022/05/23 07:14:17;;;;;;;0.32;0.32;;;25.20;40.10;;;-147.20;100.00;58430.41;5074147;28;20040;-18
2022/05/23 07:16:45;;;;;;;0.30;0.30;;;25.20;40.00;;;-147.20;100.00;58430.41;5073741;28;20435;-19
2022/05/23 07:19:12;;;;;;;0.40;0.40;;;25.20;40.00;;;-147.20;100.00;58430.41;5073804;28;20495;-19
2022/05/23 07:21:59;;;;;;;0.40;0.40;;;25.20;40.00;;;-147.20;100.00;58430.41;5059793;28;20562;-19
2022/05/23 07:24:31;;;;;;;0.40;0.40;;;25.30;40.00;;;-147.20;100.00;58430.41;5072481;28;20518;-19
2022/05/23 07:27:02;;;;;;;0.40;0.40;;;25.30;39.90;;;-147.20;100.00;58430.41;5057549;28;20053;-19
2022/05/23 07:29:28;;;;;;;0.30;0.30;;;25.30;39.90;;;-147.20;100.00;58430.41;5072914;28;20049;-19
2022/05/23 07:31:58;;;;;;;0.43;0.30;;;25.30;39.90;;;-147.20;100.00;58430.41;5072732;28;20469;-19
2022/05/23 07:34:25;;;;;;;0.47;0.47;;;25.30;39.80;;;-147.20;100.00;58430.41;5073892;28;20055;-19
2022/05/23 07:36:51;;;;;;;0.82;0.47;;;25.30;39.80;;;-147.20;100.00;58430.41;5074056;28;20079;-19
2022/05/23 07:39:17;;;;;;;0.85;0.32;;;25.30;39.90;;;-147.20;100.00;58430.41;5072815;28;20049;-19
2022/05/23 07:41:48;;;;;;;0.40;0.40;;;25.30;39.80;;;-147.20;100.00;58430.41;5074310;28;20052;-19
2022/05/23 07:44:16;;;;;;;0.30;0.30;;;25.40;39.80;;;-147.20;100.00;58430.41;5090480;28;20052;-18
2022/05/23 07:46:43;;;;;;;0.43;0.43;;;25.40;39.80;;;-147.20;100.00;58430.41;5091175;28;20051;-19
2022/05/23 07:49:10;;;;;;;0.30;0.30;;;25.30;39.70;;;-147.20;100.00;58430.41;5073261;28;20558;-19
2022/05/23 07:51:39;;;;;;;0.35;0.35;;;25.40;39.80;;;-147.20;100.00;58430.41;5073335;28;20217;-19
2022/05/23 08:02:42;;;;;;;0.63;0.40;;;25.50;39.60;;;-147.20;100.00;58430.41;5094750;28;20134;-19
2022/05/23 08:05:14;;;;;;;0.40;0.40;;;25.50;39.60;;;-147.20;100.00;58430.41;5073117;28;20087;-19
2022/05/23 08:07:44;;;;;;;0.40;0.40;;;25.40;39.50;;;-147.20;100.00;58430.41;5074468;28;20439;-20
2022/05/23 08:10:11;;;;;;;0.40;0.40;;;25.50;39.60;;;-147.20;100.00;58430.41;5075952;28;20049;-19
2022/05/23 08:12:38;;;;;;;0.85;0.32;;;25.40;39.60;;;-147.20;100.00;58430.41;5075419;28;20078;-19
2022/05/23 08:15:11;;;;;;;0.45;0.43;;;25.40;39.70;;;-147.20;100.00;58430.41;5059959;28;20053;-18
2022/05/23 08:17:40;;;;;;;0.40;0.40;;;25.40;39.80;;;-147.20;100.00;58430.41;5077216;28;20493;-19
2022/05/23 08:20:20;;;;;;;0.45;0.45;;;25.30;39.80;;;-147.20;100.00;58430.41;5060397;28;20056;-20
2022/05/23 08:22:54;;;;;;;0.50;0.50;;;25.30;39.80;;;-147.20;100.00;58430.41;5078551;28;20446;-18
2022/05/23 08:25:27;;;;;;;0.47;0.40;;;25.30;39.80;;;-147.20;100.00;58430.41;5075172;28;20048;-20
2022/05/23 08:27:56;;;;;;;0.35;0.35;;;25.30;39.80;;;-147.20;100.00;58430.41;5074606;28;20047;-17
2022/05/23 08:30:23;;;;;;;0.30;0.30;;;25.30;39.70;;;-147.20;100.00;58430.41;5057552;28;20055;-19
2022/05/23 08:32:57;;;;;;;0.30;0.30;;;25.30;39.80;;;-147.20;100.00;58430.41;5073095;28;20052;-19
2022/05/23 08:35:24;;;;;;;0.73;0.50;;;25.30;39.80;;;-147.20;100.00;58430.41;5075870;28;20075;-19
2022/05/23 08:37:55;;;;;;;0.40;0.40;;;25.30;39.90;;;-147.20;100.00;58430.41;5074127;28;20048;-18
2022/05/23 08:41:14;;;;;;;0.65;0.50;;;25.30;39.90;;;-147.20;100.00;58430.41;5093661;28;20097;-18
2022/05/23 08:44:28;;;;;;;0.75;0.40;;;25.30;39.90;;;-147.20;100.00;58430.41;5073983;28;20079;-18
2022/05/23 08:47:28;;;;;;;1.08;0.80;;;25.20;39.90;;;-147.20;100.00;58430.41;5060122;28;20047;-19
2022/05/23 08:50:25;;;;;;;0.50;0.50;;;25.20;40.00;;;-147.20;100.00;58430.41;5075574;28;20052;-18
2022/05/23 08:53:15;;;;;;;0.40;0.40;;;25.20;40.10;;;-147.20;100.00;58430.41;5057841;28;20451;-18
2022/05/23 08:56:33;;;;;;;0.40;0.40;;;25.10;40.10;;;-147.20;100.00;58430.41;5080575;28;20142;-18
2022/05/23 08:59:21;;;;;;;0.50;0.50;;;25.10;40.20;;;-147.20;100.00;58430.41;5060457;28;20523;-18
2022/05/23 09:01:56;;;;;;;0.40;0.40;;;25.10;40.20;;;-147.20;100.00;58430.41;5057211;28;20425;-18
2022/05/23 09:05:05;;;;;;;0.70;0.50;;;25.00;40.20;;;-147.20;100.00;58430.41;5075405;28;20055;-19
2022/05/23 09:07:42;;;;;;;0.40;0.40;;;25.00;40.30;;;-147.20;100.00;58430.41;5093611;28;20040;-19
2022/05/23 09:10:16;;;;;;;0.40;0.40;;;25.00;40.40;;;-147.20;100.00;58430.41;5074223;28;20075;-19
2022/05/23 09:12:42;;;;;;;0.38;0.38;;;24.90;40.40;;;-147.20;100.00;58430.41;5074885;28;20490;-19
2022/05/23 09:15:09;;;;;;;0.65;0.50;;;24.90;40.40;;;-147.20;100.00;58430.41;5093662;28;20127;-19
2022/05/23 09:17:40;;;;;;;0.30;0.30;;;24.90;40.50;;;-147.20;100.00;58430.41;5075642;28;20093;-19
2022/05/23 09:20:13;;;;;;;0.65;0.50;;;24.90;40.50;;;-147.20;100.00;58430.41;5093619;28;20044;-19
2022/05/23 09:22:58;;;;;;;0.52;0.43;;;24.80;40.60;;;-147.20;100.00;58430.41;5073938;28;20448;-19
2022/05/23 09:25:26;;;;;;;0.55;0.45;;;24.80;40.60;;;-147.20;100.00;58430.41;5093337;28;20139;-18
2022/05/23 09:28:29;;;;;;;0.40;0.40;;;24.80;40.70;;;-147.20;100.00;58430.41;5075187;28;20074;-18
2022/05/23 09:31:05;;;;;;;0.43;0.40;;;24.70;40.70;;;-147.20;100.00;58430.41;5075008;28;20467;-18
2022/05/23 09:33:32;;;;;;;0.63;0.40;;;24.70;40.70;;;-147.20;100.00;58430.41;5093436;28;20040;-20
2022/05/23 09:36:13;;;;;;;0.63;0.60;;;24.70;40.70;;;-147.20;100.00;58430.41;5093432;28;20079;-20
2022/05/23 09:38:56;;;;;;;0.82;0.50;;;24.70;40.70;;;-147.20;100.00;58430.41;5093680;28;20131;-19
2022/05/23 09:47:46;;;;;;;0.90;0.60;;;24.70;40.80;;;-147.20;100.00;58430.41;5093302;28;20059;-19
2022/05/23 09:50:27;;;;;;;0.52;0.52;;;24.60;40.80;;;-147.20;100.00;58430.41;5093828;28;20044;-19
2022/05/23 09:52:56;;;;;;;0.57;0.50;;;24.60;40.80;;;-147.20;100.00;58430.41;5092995;28;20044;-20
2022/05/23 09:55:31;;;;;;;1.10;0.50;;;24.70;40.90;;;-147.20;100.00;58430.41;5093367;28;20130;-19
2022/05/23 09:58:02;;;;;;;0.57;0.50;;;24.60;40.80;;;-147.20;100.00;58430.41;5092981;28;20056;-19
2022/05/23 10:00:33;;;;;;;;;;;24.60;40.90;;;-147.20;100.00;58430.41;5075059;28;20067;-19
2022/05/23 10:03:01;;;;;;;0.47;0.45;;;24.50;40.90;;;-147.20;100.00;58430.41;5093359;28;19916;-20
2022/05/23 10:05:38;;;;;;;0.50;0.50;;;24.60;40.90;;;-147.20;100.00;58430.41;5093023;28;20161;-19
2022/05/23 10:08:31;;;;;;;0.30;0.30;;;24.60;40.90;;;-147.20;100.00;58430.41;5043984;28;20047;-19
2022/05/23 10:11:00;;;;;;;0.63;0.63;;;24.60;40.90;;;-147.20;100.00;58430.41;5092774;28;20100;-19
2022/05/23 10:13:41;;;;;;;0.52;0.52;;;24.60;40.90;;;-147.20;100.00;58430.41;5074831;28;20400;-19
2022/05/23 10:16:15;;;;;;;0.60;0.60;;;24.60;40.90;;;-147.20;100.00;58430.41;5092178;28;20052;-19
2022/05/23 10:19:03;;;;;;;0.68;0.50;;;24.50;40.90;;;-147.20;100.00;58430.41;5074747;28;20040;-19
2022/05/23 10:21:35;;;;;;;0.50;0.47;;;24.50;40.90;;;-147.20;100.00;58430.41;5074294;28;20117;-19
2022/05/23 10:24:26;;;;;;;0.52;0.43;;;24.60;40.90;;;-147.20;100.00;58430.41;5092687;28;20047;-19
2022/05/23 10:27:06;;;;;;;0.47;0.47;;;24.60;40.80;;;-147.20;100.00;58430.41;5093036;28;20051;-18
2022/05/23 10:30:01;;;;;;;1.05;0.50;;;24.60;40.80;;;-147.20;100.00;58430.41;5074767;28;20040;-19
2022/05/23 10:32:32;;;;;;;0.50;0.50;;;24.60;40.80;;;-147.20;100.00;58430.41;5075053;28;20040;-19
2022/05/23 10:35:09;;;;;;;0.50;0.50;;;24.60;40.90;;;-147.20;100.00;58430.41;5074946;28;20052;-19
2022/05/23 10:37:40;;;;;;;0.60;0.40;;;24.60;40.90;;;-147.20;100.00;58430.41;5092248;28;20056;-18
2022/05/23 10:43:19;;;;;;;0.65;0.50;;;24.60;41.20;;;-147.20;100.00;58430.41;5093046;28;20472;-20
2022/05/23 10:45:54;;;;;;;0.57;0.50;;;24.60;40.90;;;-147.20;100.00;58430.41;5074507;28;20063;-18
2022/05/23 10:48:48;;;;;;;0.85;0.50;;;24.60;40.90;;;-147.20;100.00;58430.41;5092531;28;20067;-18
2022/05/23 10:51:42;;;;;;;0.50;0.50;;;24.60;40.90;;;-147.20;100.00;58430.41;5074684;28;20058;-19
2022/05/23 10:54:42;;;;;;;0.60;0.60;;;24.50;40.90;;;-147.20;100.00;58430.41;5092400;28;20044;-19
2022/05/23 10:57:50;;;;;;;1.85;0.57;;;24.60;40.80;;;-147.20;100.00;58430.41;5058786;28;20051;-19
2022/05/23 11:00:27;;;;;;;0.55;0.55;;;24.50;40.90;;;-147.20;100.00;58430.41;5072838;28;20095;-18
2022/05/23 11:03:26;;;;;;;1.50;0.50;;;24.50;40.90;;;-147.20;100.00;58430.41;5092811;28;20491;-19
2022/05/23 11:06:22;;;;;;;0.40;0.40;;;24.60;40.90;;;-147.20;100.00;58430.41;5078197;28;20048;-18
2022/05/23 11:09:06;;;;;;;0.65;0.43;;;24.50;40.90;;;-147.20;100.00;58430.41;5074308;28;20068;-18
2022/05/23 11:12:14;;;;;;;0.68;0.60;;;24.60;40.90;;;-147.20;100.00;58430.41;5092887;28;20079;-19
2022/05/23 11:15:18;;;;;;;0.80;0.50;;;24.50;40.90;;;-147.20;100.00;58430.41;5073653;28;20044;-18
2022/05/23 11:18:06;;;;;;;1.17;0.60;;;24.60;40.90;;;-147.20;100.00;58430.41;5092309;28;20059;-19
2022/05/23 11:20:38;;;;;;;0.57;0.40;;;24.50;40.80;;;-147.20;100.00;58430.41;5073924;28;20048;-18
2022/05/23 11:23:24;;;;;;;0.85;0.60;;;24.50;40.80;;;-147.20;100.00;58430.41;5092136;28;20086;-19